Time;durP1;ratioP1;P1;durP2;ratioP2;P2;SDS_P1;SDS_P2;PMS_P1;PMS_P2;Temp;Humidity;BMP_temperature;BMP_pressure;BME280_temperature;BME280_humidity;BME280_pressure;Samples;Min_cycle;Max_cycle;Signal;HPM_P1;HPM_P2
2023/06/21 00:02:03;;;;;;;6.38;5.97;;;;;;;19.78;100.00;100808.75;6030545;23;20028;-69
2023/06/21 00:04:29;;;;;;;6.45;6.05;;;;;;;19.72;100.00;100831.44;5984259;23;20031;-69
2023/06/21 00:06:56;;;;;;;6.20;5.80;;;;;;;19.05;100.00;100716.63;6032233;23;20026;-69
2023/06/21 00:09:23;;;;;;;6.03;5.63;;;;;;;19.66;100.00;100810.63;5974847;23;20035;-69
2023/06/21 00:11:49;;;;;;;6.15;5.75;;;;;;;19.64;100.00;100807.28;6039574;23;21664;-69
2023/06/21 00:14:16;;;;;;;6.28;5.90;;;;;;;19.65;100.00;100815.13;5987224;23;20027;-69
2023/06/21 00:16:44;;;;;;;6.13;5.72;;;;;;;19.63;100.00;100816.25;6035443;23;20018;-69
2023/06/21 00:19:10;;;;;;;6.05;5.75;;;;;;;19.12;100.00;100744.38;6002607;23;20050;-70
2023/06/21 00:21:38;;;;;;;6.95;6.30;;;;;;;19.57;100.00;100820.28;6027660;23;20037;-69
2023/06/21 00:24:07;;;;;;;6.60;6.10;;;;;;;19.55;100.00;100805.44;5997476;23;20023;-69
2023/06/21 00:26:34;;;;;;;6.47;6.05;;;;;;;18.99;100.00;100726.97;6028005;23;20025;-69
2023/06/21 00:29:00;;;;;;;6.35;5.95;;;;;;;19.47;100.00;100812.28;6001826;23;20053;-69
2023/06/21 00:31:26;;;;;;;6.10;5.80;;;;;;;19.44;100.00;100815.19;6027290;23;20049;-69
2023/06/21 00:33:55;;;;;;;5.90;5.50;;;;;;;18.47;100.00;100682.59;6006936;23;20513;-71
2023/06/21 00:36:22;;;;;;;6.68;6.25;;;;;;;19.34;100.00;100822.31;6032838;23;20022;-72
2023/06/21 00:38:48;;;;;;;6.22;5.82;;;;;;;19.31;100.00;100828.75;6004905;23;20030;-70
2023/06/21 00:41:14;;;;;;;6.18;5.78;;;;;;;19.21;100.00;100811.91;5999519;23;20031;-70
2023/06/21 00:43:41;;;;;;;6.50;6.10;;;;;;;19.24;100.00;100832.91;5974528;23;20058;-69
2023/06/21 00:46:07;;;;;;;6.80;6.20;;;;;;;19.27;100.00;100835.31;6037073;23;20033;-70
2023/06/21 00:48:34;;;;;;;6.68;6.28;;;;;;;18.14;100.00;100657.94;5990020;23;20576;-70
2023/06/21 00:51:00;;;;;;;6.25;5.80;;;;;;;19.25;100.00;100845.25;6030286;23;20042;-70
2023/06/21 00:53:28;;;;;;;6.45;6.05;;;;;;;19.15;100.00;100835.53;6001458;23;20137;-70
2023/06/21 00:55:55;;;;;;;6.40;6.00;;;;;;;19.10;100.00;100844.75;6031481;23;20042;-70
2023/06/21 00:58:22;;;;;;;6.05;5.75;;;;;;;19.26;100.00;100870.03;6012240;23;20019;-69
2023/06/21 01:00:50;;;;;;;6.75;6.22;;;;;;;19.24;100.00;100870.16;6036711;23;20093;-71
2023/06/21 01:03:18;;;;;;;6.70;6.20;;;;;;;19.20;100.00;100881.19;5980134;23;20521;-71
2023/06/21 01:06:02;;;;;;;6.43;6.05;;;;;;;19.18;100.00;100876.00;6038083;23;20047;-69
2023/06/21 01:08:38;;;;;;;6.32;5.93;;;;;;;19.13;100.00;100878.22;5978224;23;20515;-69
2023/06/21 01:11:26;;;;;;;5.70;5.40;;;;;;;19.08;100.00;100877.75;6034497;23;20029;-71
2023/06/21 01:14:37;;;;;;;6.03;5.72;;;;;;;19.08;100.00;100888.41;6008665;23;20015;-71
2023/06/21 01:17:07;;;;;;;6.45;6.05;;;;;;;18.72;100.00;100832.88;6026213;23;20086;-69
2023/06/21 01:19:41;;;;;;;6.68;6.13;;;;;;;19.08;100.00;100897.25;5977608;23;20060;-69
2023/06/21 01:22:23;;;;;;;6.10;5.70;;;;;;;19.07;100.00;100892.88;6030407;23;20089;-69
2023/06/21 01:25:32;;;;;;;7.05;6.55;;;;;;;19.05;100.00;100894.84;5995596;23;20058;-69
2023/06/21 01:28:20;;;;;;;6.40;5.90;;;;;;;19.06;100.00;100887.69;6032326;23;20018;-70
2023/06/21 01:30:50;;;;;;;6.50;6.10;;;;;;;18.90;100.00;100874.84;5995952;23;20023;-69
2023/06/21 01:33:18;;;;;;;8.93;6.45;;;;;;;18.76;100.00;100845.91;6038792;23;20037;-70
2023/06/21 01:35:45;;;;;;;7.53;6.40;;;;;;;18.97;100.00;100881.34;6004283;23;20600;-69
2023/06/21 01:38:12;;;;;;;6.03;5.70;;;;;;;18.77;100.00;100847.59;6035102;23;20071;-69
2023/06/21 01:40:38;;;;;;;7.05;6.55;;;;;;;17.92;100.00;100712.03;6001068;23;20027;-69
2023/06/21 01:43:06;;;;;;;6.63;6.10;;;;;;;18.98;100.00;100895.47;5978228;23;20083;-69
2023/06/21 01:45:32;;;;;;;6.63;6.03;;;;;;;18.79;100.00;100865.13;6026030;23;20079;-69
2023/06/21 01:48:02;;;;;;;6.28;5.88;;;;;;;18.66;100.00;100849.34;6003183;23;20059;-70
2023/06/21 01:50:30;;;;;;;7.55;6.43;;;;;;;17.84;100.00;100730.41;6030238;23;20057;-70
2023/06/21 01:52:58;;;;;;;6.60;6.15;;;;;;;18.78;100.00;100897.13;6009949;23;20055;-69
2023/06/21 01:55:25;;;;;;;6.88;6.28;;;;;;;18.74;100.00;100892.09;6026950;23;20034;-70
2023/06/21 01:57:52;;;;;;;6.20;5.90;;;;;;;18.70;100.00;100889.78;6011067;23;21195;-70
2023/06/21 02:00:21;;;;;;;6.10;5.70;;;;;;;17.77;100.00;100745.09;6027732;23;20041;-71
2023/06/21 02:03:03;;;;;;;6.43;6.03;;;;;;;18.68;100.00;100900.56;6011638;23;20035;-69
2023/06/21 02:05:31;;;;;;;6.38;5.80;;;;;;;18.65;100.00;100907.94;6038434;23;20027;-71
2023/06/21 02:08:00;;;;;;;6.10;5.70;;;;;;;18.33;100.00;100868.94;6011523;23;20069;-69
2023/06/21 02:10:27;;;;;;;6.95;6.45;;;;;;;18.64;100.00;100916.88;6037295;23;20032;-69
2023/06/21 02:12:54;;;;;;;6.45;6.05;;;;;;;17.96;100.00;100800.25;6004240;23;20193;-69
2023/06/21 02:15:20;;;;;;;6.68;6.22;;;;;;;18.64;100.00;100919.53;6031444;23;20089;-71
2023/06/21 02:17:51;;;;;;;6.70;6.20;;;;;;;18.64;100.00;100925.72;6013377;23;20086;-69
2023/06/21 02:20:19;;;;;;;6.63;6.13;;;;;;;18.63;100.00;100916.03;6030780;23;20045;-69
2023/06/21 02:22:46;;;;;;;6.45;6.05;;;;;;;18.66;100.00;100917.59;5986313;23;20383;-69
2023/06/21 02:25:14;;;;;;;6.72;6.18;;;;;;;17.79;100.00;100769.72;6032343;23;20041;-69
2023/06/21 02:27:41;;;;;;;6.93;6.32;;;;;;;18.66;100.00;100921.13;5980121;23;20549;-71
2023/06/21 02:30:08;;;;;;;6.72;6.22;;;;;;;18.31;100.00;100878.84;6030505;23;20486;-69
2023/06/21 02:32:37;;;;;;;6.85;6.38;;;;;;;18.33;100.00;100884.88;5983009;23;20424;-68
2023/06/21 02:35:04;;;;;;;7.38;6.75;;;;;;;18.60;100.00;100926.09;6032587;23;20509;-69
2023/06/21 02:37:30;;;;;;;7.30;6.30;;;;;;;18.45;100.00;100904.28;5985626;23;20096;-69
2023/06/21 02:39:57;;;;;;;7.40;6.55;;;;;;;18.57;100.00;100924.53;6030918;23;20034;-69
2023/06/21 02:42:29;;;;;;;6.63;6.20;;;;;;;17.70;100.00;100797.00;5974201;23;20016;-69
2023/06/21 02:44:56;;;;;;;6.93;6.40;;;;;;;18.28;100.00;100889.69;6031065;23;20023;-69
2023/06/21 02:47:22;;;;;;;7.28;6.68;;;;;;;18.30;100.00;100912.53;6011173;23;20007;-69
2023/06/21 02:49:48;;;;;;;6.88;6.40;;;;;;;18.16;100.00;100899.50;6010016;23;20041;-69
2023/06/21 02:52:15;;;;;;;6.82;6.25;;;;;;;18.00;100.00;100872.50;6009807;23;20030;-70
2023/06/21 02:54:41;;;;;;;9.07;6.72;;;;;;;18.44;100.00;100937.13;6008475;23;20041;-69
2023/06/21 02:57:08;;;;;;;7.03;6.32;;;;;;;18.42;100.00;100941.72;6009212;23;20426;-69
2023/06/21 02:59:35;;;;;;;6.60;6.13;;;;;;;18.33;100.00;100930.88;6030729;23;20018;-68
2023/06/21 03:02:02;;;;;;;7.13;6.53;;;;;;;18.25;100.00;100917.38;6009357;23;20226;-69
2023/06/21 03:04:30;;;;;;;6.95;6.30;;;;;;;18.01;100.00;100890.97;6030180;23;20041;-69
2023/06/21 03:06:56;;;;;;;6.60;6.20;;;;;;;18.38;100.00;100943.81;5978610;23;20083;-69
2023/06/21 03:09:23;;;;;;;6.90;6.35;;;;;;;18.29;100.00;100942.72;6033669;23;20026;-69
2023/06/21 03:11:49;;;;;;;7.43;6.80;;;;;;;18.34;100.00;100950.31;6011724;23;20023;-69
2023/06/21 03:14:15;;;;;;;8.32;7.55;;;;;;;18.33;100.00;100949.47;6032012;23;20023;-71
2023/06/21 03:16:44;;;;;;;8.55;7.57;;;;;;;18.28;100.00;100953.47;5980209;23;20011;-69
2023/06/21 03:19:10;;;;;;;7.90;7.18;;;;;;;17.96;100.00;100918.88;6016511;23;20026;-68
2023/06/21 03:21:36;;;;;;;8.40;7.60;;;;;;;18.19;100.00;100960.38;5990594;23;20059;-69
2023/06/21 03:24:03;;;;;;;6.85;6.35;;;;;;;18.10;100.00;100961.97;6010427;23;20497;-69
2023/06/21 03:26:30;;;;;;;7.45;6.75;;;;;;;18.15;100.00;100982.84;5987908;23;20031;-69
2023/06/21 03:28:57;;;;;;;9.25;6.57;;;;;;;17.67;100.00;100901.59;6031645;23;20010;-70
2023/06/21 03:31:23;;;;;;;6.65;6.25;;;;;;;17.51;100.00;100888.69;5990993;23;20035;-70
2023/06/21 03:33:50;;;;;;;7.13;6.53;;;;;;;18.16;100.00;100989.00;6030498;23;20042;-70
2023/06/21 03:36:16;;;;;;;6.90;6.32;;;;;;;18.03;100.00;100960.75;5988076;23;20049;-69
2023/06/21 03:38:43;;;;;;;6.95;6.47;;;;;;;18.22;100.00;101012.41;6027728;23;20518;-68
2023/06/21 03:41:09;;;;;;;7.50;6.72;;;;;;;18.30;100.00;100989.59;6003745;23;20023;-66
2023/06/21 03:43:35;;;;;;;6.80;6.30;;;;;;;18.35;100.00;100991.88;5978369;23;20031;-66
2023/06/21 03:46:02;;;;;;;7.53;6.93;;;;;;;18.43;100.00;100996.56;6038259;23;20093;-68
2023/06/21 03:48:29;;;;;;;7.18;6.57;;;;;;;18.49;100.00;101004.06;5990398;23;20054;-67
2023/06/21 03:50:55;;;;;;;7.80;7.05;;;;;;;18.53;100.00;101008.16;6030643;23;20023;-67
2023/06/21 03:53:21;;;;;;;7.05;6.47;;;;;;;18.56;100.00;101002.56;5984798;23;20548;-67
2023/06/21 03:55:48;;;;;;;7.30;6.72;;;;;;;18.61;100.00;101005.72;6032667;23;20030;-67
2023/06/21 03:58:14;;;;;;;7.15;6.55;;;;;;;18.67;100.00;101007.88;6007238;23;20082;-67
2023/06/21 04:00:41;;;;;;;7.28;6.78;;;;;;;18.74;100.00;101002.88;6035283;23;20049;-67
2023/06/21 04:03:07;;;;;;;7.57;6.97;;;;;;;18.78;100.00;101001.66;5999921;23;20023;-67
2023/06/21 04:05:34;;;;;;;7.20;6.60;;;;;;;18.50;100.00;100944.59;6029336;23;20435;-67
2023/06/21 04:08:00;;;;;;;7.13;6.63;;;;;;;18.93;100.00;100996.94;5974369;23;20564;-69
2023/06/21 04:10:26;;;;;;;7.40;6.80;;;;;;;19.01;100.00;101002.47;6029159;23;20412;-67
2023/06/21 04:12:53;;;;;;;7.05;6.45;;;;;;;19.08;100.00;100997.47;6004599;23;20085;-67
2023/06/21 04:15:20;;;;;;;6.97;6.47;;;;;;;19.14;100.00;100999.63;6030670;23;20026;-67
2023/06/21 04:17:49;;;;;;;7.72;7.03;;;;;;;18.91;100.00;100948.34;5987712;23;20072;-69
2023/06/21 04:20:15;;;;;;;7.20;6.50;;;;;;;19.35;100.00;101004.13;6033136;23;20029;-67
2023/06/21 04:22:43;;;;;;;7.28;6.68;;;;;;;19.52;100.00;101008.84;5974895;23;20051;-69
2023/06/21 04:25:09;;;;;;;7.50;6.85;;;;;;;19.25;100.00;100950.84;6034956;23;20034;-67
2023/06/21 04:27:36;;;;;;;8.60;7.65;;;;;;;19.65;100.00;101006.84;5990470;23;20501;-67
2023/06/21 04:30:02;;;;;;;8.20;7.38;;;;;;;19.70;100.00;101014.41;6027867;23;20057;-67
2023/06/21 04:32:32;;;;;;;6.97;6.47;;;;;;;19.75;100.00;101020.25;6001150;23;20031;-67
2023/06/21 04:34:59;;;;;;;6.80;6.40;;;;;;;19.71;100.00;100998.34;6031968;23;20034;-67
2023/06/21 04:37:26;;;;;;;7.00;6.50;;;;;;;19.79;100.00;101004.84;6001949;23;20046;-67
2023/06/21 04:39:52;;;;;;;7.47;6.88;;;;;;;19.79;100.00;100976.38;5977238;23;20027;-67
2023/06/21 04:42:37;;;;;;;7.88;6.88;;;;;;;20.20;100.00;101011.88;6001247;23;20091;-67
2023/06/21 04:45:04;;;;;;;7.90;6.78;;;;;;;20.66;99.70;101012.31;6035982;23;20022;-69
2023/06/21 04:47:31;;;;;;;7.35;6.75;;;;;;;21.35;95.31;101016.69;6000054;23;20035;-67
2023/06/21 04:49:57;;;;;;;7.40;6.80;;;;;;;22.25;90.09;101018.03;6001742;23;20018;-67
2023/06/21 04:52:47;;;;;;;6.97;6.57;;;;;;;23.08;83.87;101009.03;6002111;23;20408;-67
2023/06/21 04:55:18;;;;;;;7.22;6.70;;;;;;;23.80;79.96;100988.31;6033695;23;20090;-67
2023/06/21 04:57:46;;;;;;;7.18;6.70;;;;;;;24.25;74.75;100965.69;5987359;23;20991;-68
2023/06/21 05:00:14;;;;;;;6.72;6.32;;;;;;;24.56;72.47;100914.16;6029864;23;20027;-67
2023/06/21 05:02:40;;;;;;;7.47;6.85;;;;;;;24.99;69.19;100914.81;6001905;23;20019;-67
2023/06/21 05:05:07;;;;;;;7.07;6.65;;;;;;;25.32;67.27;100912.13;6021560;23;20458;-67
2023/06/21 05:07:37;;;;;;;7.13;6.53;;;;;;;25.57;66.71;100895.94;6005017;23;20019;-67
2023/06/21 05:10:08;;;;;;;7.15;6.65;;;;;;;25.92;64.83;100885.72;6029431;23;20031;-67
2023/06/21 05:12:35;;;;;;;8.00;7.30;;;;;;;26.00;63.33;100856.94;5978848;23;20019;-67
2023/06/21 05:15:02;;;;;;;7.45;6.88;;;;;;;25.85;63.12;100846.06;6034109;23;20027;-67
2023/06/21 05:17:28;;;;;;;7.47;6.78;;;;;;;25.93;64.05;100863.19;6005520;23;20027;-69
2023/06/21 05:19:55;;;;;;;7.85;7.25;;;;;;;25.99;62.77;100832.91;5971890;23;20106;-67
2023/06/21 05:22:21;;;;;;;7.30;6.80;;;;;;;26.01;62.32;100825.50;6004623;23;20343;-68
2023/06/21 05:24:48;;;;;;;6.70;6.30;;;;;;;26.33;61.96;100816.34;6030179;23;20018;-68
2023/06/21 05:27:14;;;;;;;6.72;6.28;;;;;;;26.70;61.07;100819.25;6006878;23;20047;-69
2023/06/21 05:29:40;;;;;;;6.80;6.40;;;;;;;26.90;59.82;100811.47;6008463;23;20037;-68
2023/06/21 05:32:07;;;;;;;7.63;7.03;;;;;;;26.81;59.42;100794.59;6001600;23;20034;-70
2023/06/21 05:34:34;;;;;;;7.75;7.15;;;;;;;26.30;59.66;100760.22;5977537;23;20032;-69
2023/06/21 05:37:02;;;;;;;7.43;6.85;;;;;;;25.13;62.13;100754.84;6033946;23;20018;-67
2023/06/21 05:39:29;;;;;;;7.13;6.63;;;;;;;24.89;64.99;100806.78;5999550;23;20015;-69
2023/06/21 05:41:55;;;;;;;7.60;6.93;;;;;;;24.80;66.09;100821.22;6028617;23;20030;-66
2023/06/21 05:44:21;;;;;;;7.20;6.70;;;;;;;24.66;66.12;100834.31;5998156;23;20011;-68
2023/06/21 05:46:50;;;;;;;7.10;6.70;;;;;;;24.93;66.39;100856.44;6034122;23;20026;-68
2023/06/21 05:49:18;;;;;;;7.47;6.93;;;;;;;24.95;65.53;100814.13;6007467;23;20026;-66
2023/06/21 05:51:44;;;;;;;7.90;7.00;;;;;;;25.07;64.39;100836.09;6042852;23;20449;-66
2023/06/21 05:54:11;;;;;;;7.35;6.72;;;;;;;24.90;66.54;100878.25;6002254;23;20019;-68
2023/06/21 05:56:40;;;;;;;7.50;7.00;;;;;;;25.26;66.46;100869.84;6038897;23;20852;-68
2023/06/21 05:59:07;;;;;;;7.78;7.18;;;;;;;25.32;65.66;100826.16;6006060;23;20486;-68
2023/06/21 06:01:34;;;;;;;7.63;6.93;;;;;;;26.10;63.84;100877.38;6040094;23;20486;-68
2023/06/21 06:04:03;;;;;;;7.40;6.90;;;;;;;26.44;61.84;100863.50;6003816;23;20027;-67
2023/06/21 06:06:39;;;;;;;6.95;6.47;;;;;;;26.80;61.10;100865.59;6033807;23;20667;-67
2023/06/21 06:09:07;;;;;;;7.72;7.13;;;;;;;26.36;60.56;100809.75;5986592;23;20027;-69
2023/06/21 06:11:34;;;;;;;7.50;7.00;;;;;;;25.89;62.36;100860.00;6032483;23;20011;-67
2023/06/21 06:14:00;;;;;;;7.30;6.70;;;;;;;25.53;64.11;100879.31;6007654;23;20035;-69
2023/06/21 06:16:27;;;;;;;8.20;7.53;;;;;;;24.91;66.18;100873.72;6039144;23;20092;-66
2023/06/21 06:18:53;;;;;;;7.43;6.93;;;;;;;24.93;67.26;100912.81;5989004;23;20035;-67
2023/06/21 06:21:21;;;;;;;7.82;7.13;;;;;;;24.25;67.95;100905.84;6038049;23;20030;-66
2023/06/21 06:23:50;;;;;;;12.02;7.07;;;;;;;23.59;71.27;100920.81;6008960;23;20034;-69
2023/06/21 06:26:22;;;;;;;7.18;6.60;;;;;;;23.53;74.75;100951.78;6028408;23;20034;-66
2023/06/21 06:28:52;;;;;;;;;;;;;;;24.05;73.82;100975.84;6006213;23;20427;-66
2023/06/21 06:31:21;;;;;;;6.80;6.22;;;;;;;24.78;71.86;100989.66;6036810;23;19922;-66
2023/06/21 06:33:48;;;;;;;7.75;7.22;;;;;;;24.87;68.72;100964.50;5982604;23;21070;-69
2023/06/21 06:36:15;;;;;;;7.72;7.13;;;;;;;24.36;68.00;100886.78;6034892;23;20019;-69
2023/06/21 06:38:41;;;;;;;7.80;7.15;;;;;;;25.24;68.17;100990.88;6010274;23;20106;-68
2023/06/21 06:41:08;;;;;;;8.00;7.00;;;;;;;25.66;67.57;100989.81;6032356;23;20044;-68
2023/06/21 06:43:34;;;;;;;6.82;6.35;;;;;;;25.44;67.04;100964.50;5979326;23;20024;-68
2023/06/21 06:46:01;;;;;;;7.95;7.25;;;;;;;25.22;67.45;100973.25;6038523;23;20089;-70
2023/06/21 06:48:27;;;;;;;7.57;7.07;;;;;;;25.04;68.13;100982.28;6004570;23;20031;-68
2023/06/21 06:50:55;;;;;;;8.35;7.65;;;;;;;24.62;67.60;100931.44;6036828;23;20110;-68
2023/06/21 06:53:21;;;;;;;8.32;7.55;;;;;;;24.28;68.46;100930.50;5989008;23;20062;-68
2023/06/21 06:55:51;;;;;;;8.05;7.35;;;;;;;24.84;70.13;101003.25;6035523;23;20120;-68
2023/06/21 06:58:21;;;;;;;7.88;7.07;;;;;;;25.34;68.63;101009.50;6003119;23;20029;-68
2023/06/21 07:00:48;;;;;;;7.65;7.00;;;;;;;25.55;67.61;101008.97;6037155;23;20355;-68
2023/06/21 07:03:14;;;;;;;7.40;6.93;;;;;;;25.73;65.76;100981.88;6007003;23;20636;-68
2023/06/21 07:05:45;;;;;;;7.72;7.13;;;;;;;25.99;65.37;100999.66;6037202;23;20222;-70
2023/06/21 07:08:13;;;;;;;7.68;7.07;;;;;;;25.88;64.96;100982.03;6006465;23;20023;-68
2023/06/21 07:10:40;;;;;;;7.85;7.15;;;;;;;25.87;66.04;101009.91;6038685;23;20458;-68
2023/06/21 07:13:06;;;;;;;7.97;7.38;;;;;;;26.00;64.93;100993.25;6011695;23;20022;-68
2023/06/21 07:15:33;;;;;;;8.07;7.25;;;;;;;25.80;65.27;100987.41;6041744;23;20073;-68
2023/06/21 07:17:59;;;;;;;7.90;7.30;;;;;;;25.42;66.81;101001.44;6011700;23;20025;-68
2023/06/21 07:20:26;;;;;;;8.30;7.60;;;;;;;24.79;67.87;100969.88;6035625;23;20076;-68
2023/06/21 07:22:53;;;;;;;8.27;7.70;;;;;;;25.35;68.58;101010.34;6004391;23;20470;-68
2023/06/21 07:25:22;;;;;;;7.85;7.15;;;;;;;25.21;67.57;100991.22;5977024;23;20148;-68
2023/06/21 07:27:49;;;;;;;7.93;7.38;;;;;;;25.24;67.65;100998.94;6029943;23;20014;-68
2023/06/21 07:30:16;;;;;;;7.97;7.28;;;;;;;25.40;68.27;101016.91;5987038;23;20026;-68
2023/06/21 07:32:43;;;;;;;7.45;6.95;;;;;;;25.38;68.21;101010.84;6028242;23;20026;-68
2023/06/21 07:35:09;;;;;;;8.93;7.25;;;;;;;24.70;68.65;101006.59;6001234;23;20035;-70
2023/06/21 07:37:36;;;;;;;7.38;6.85;;;;;;;24.46;71.09;101037.69;6032208;23;20051;-68
2023/06/21 07:40:05;;;;;;;7.95;7.35;;;;;;;24.84;71.29;101035.47;6011139;23;20047;-69
2023/06/21 07:42:31;;;;;;;9.13;7.45;;;;;;;24.85;70.99;101030.94;6028647;23;20073;-68
2023/06/21 07:44:58;;;;;;;7.95;7.25;;;;;;;24.97;70.01;101037.66;6009571;23;20540;-70
2023/06/21 07:47:24;;;;;;;7.70;7.10;;;;;;;25.10;69.31;100988.84;5976864;23;20463;-70
2023/06/21 07:49:51;;;;;;;7.97;7.25;;;;;;;25.91;67.65;101032.78;6009169;23;20647;-68
2023/06/21 07:52:17;;;;;;;7.60;7.03;;;;;;;26.32;65.47;101023.72;6036092;23;20029;-68
2023/06/21 07:54:47;;;;;;;9.00;7.78;;;;;;;26.13;65.66;101015.06;6003308;23;20572;-68
2023/06/21 07:57:18;;;;;;;7.93;7.32;;;;;;;25.81;67.11;101019.50;6025795;23;20016;-68
2023/06/21 07:59:45;;;;;;;8.43;7.60;;;;;;;25.18;67.54;101020.25;6009495;23;20027;-68
2023/06/21 08:02:13;;;;;;;7.72;7.13;;;;;;;25.57;68.88;101044.56;6030291;23;20014;-68
2023/06/21 08:04:42;;;;;;;8.30;7.70;;;;;;;25.97;67.75;101047.41;6008133;23;20035;-66
2023/06/21 08:07:09;;;;;;;8.15;7.53;;;;;;;25.90;65.50;101006.91;6031834;23;20097;-68
2023/06/21 08:09:35;;;;;;;7.90;7.30;;;;;;;25.62;66.79;101025.28;6007210;23;20030;-68
2023/06/21 08:12:02;;;;;;;8.07;7.40;;;;;;;26.12;64.72;101024.16;6038033;23;20030;-68
2023/06/21 08:14:28;;;;;;;7.93;7.32;;;;;;;26.62;64.01;101035.53;6005246;23;20019;-68
2023/06/21 08:16:55;;;;;;;8.90;8.05;;;;;;;26.31;63.54;101009.44;6035386;23;20114;-68
2023/06/21 08:19:21;;;;;;;8.23;7.45;;;;;;;26.47;63.27;101016.56;5991742;23;20030;-68
2023/06/21 08:21:48;;;;;;;8.63;7.20;;;;;;;26.43;63.21;101017.94;6034776;23;20499;-68
2023/06/21 08:24:14;;;;;;;8.57;7.88;;;;;;;25.73;64.03;100949.63;5983497;23;20085;-68
2023/06/21 08:26:40;;;;;;;8.10;7.50;;;;;;;25.99;65.29;101026.53;6021905;23;20023;-68
2023/06/21 08:29:07;;;;;;;8.60;7.80;;;;;;;25.54;66.56;101031.50;6007321;23;20098;-70
2023/06/21 08:31:33;;;;;;;8.00;7.40;;;;;;;26.07;65.72;101035.41;6028136;23;20053;-68
2023/06/21 08:34:00;;;;;;;7.95;7.20;;;;;;;25.70;65.83;101001.06;6005290;23;20039;-70
2023/06/21 08:36:26;;;;;;;8.32;7.53;;;;;;;25.35;66.34;101005.81;6033040;23;20088;-71
2023/06/21 08:38:53;;;;;;;8.30;7.60;;;;;;;26.19;65.79;101033.19;5988733;23;20023;-68
2023/06/21 08:41:19;;;;;;;8.13;7.53;;;;;;;26.07;64.20;100972.72;6033708;23;20086;-68
2023/06/21 08:43:48;;;;;;;7.53;7.03;;;;;;;26.70;62.56;101002.34;5976528;23;20023;-68
2023/06/21 08:46:16;;;;;;;8.88;7.10;;;;;;;26.46;61.96;100991.53;6025443;23;20041;-68
2023/06/21 08:48:46;;;;;;;6.97;6.50;;;;;;;26.07;62.58;100978.09;6008705;23;20014;-68
2023/06/21 08:51:14;;;;;;;17.33;16.15;;;;;;;26.26;62.40;100987.59;5930431;23;20022;-67
2023/06/21 08:53:49;;;;;;;7.82;7.20;;;;;;;26.55;61.65;100986.91;6000752;23;20027;-67
2023/06/21 08:56:23;;;;;;;7.68;7.07;;;;;;;27.05;60.14;100977.50;6032375;23;20025;-67
2023/06/21 08:58:54;;;;;;;8.30;7.60;;;;;;;27.59;59.01;100984.59;6002592;23;20053;-68
2023/06/21 09:01:23;;;;;;;7.97;7.37;;;;;;;27.74;58.31;100971.09;6032786;23;20015;-67
2023/06/21 09:03:56;;;;;;;8.52;7.80;;;;;;;27.80;57.75;100940.72;6001400;23;20020;-68
2023/06/21 09:06:25;;;;;;;7.97;7.40;;;;;;;27.11;58.15;100938.22;5979423;23;20051;-68
2023/06/21 09:08:55;;;;;;;8.48;7.80;;;;;;;26.33;60.62;100953.59;6033475;23;20026;-70
2023/06/21 09:11:22;;;;;;;8.30;7.65;;;;;;;26.56;61.72;100961.69;6005981;23;20034;-67
2023/06/21 09:13:50;;;;;;;9.35;7.78;;;;;;;26.60;62.21;100994.47;5979661;23;20087;-67
2023/06/21 09:16:19;;;;;;;9.40;8.25;;;;;;;26.54;63.23;101016.69;6009201;23;20090;-70
2023/06/21 09:18:46;;;;;;;8.65;7.80;;;;;;;26.63;63.06;101023.75;6035708;23;20022;-68
2023/06/21 09:21:14;;;;;;;8.52;7.68;;;;;;;26.12;62.90;100959.59;6019642;23;20025;-69
2023/06/21 09:23:43;;;;;;;9.25;8.20;;;;;;;26.22;62.43;100962.03;6032450;23;20699;-67
2023/06/21 09:26:12;;;;;;;8.48;7.68;;;;;;;27.03;61.58;101025.31;6014332;23;20034;-67
2023/06/21 09:28:39;;;;;;;8.38;7.78;;;;;;;26.94;59.57;100947.44;5987556;23;20087;-67
2023/06/21 09:31:05;;;;;;;8.30;7.63;;;;;;;26.94;58.28;100916.00;6015959;23;20007;-68
2023/06/21 09:33:32;;;;;;;8.30;7.68;;;;;;;27.00;58.63;100969.13;6030034;23;20035;-68
2023/06/21 09:35:59;;;;;;;8.45;7.75;;;;;;;27.37;59.08;100991.72;5993492;23;20031;-68
2023/06/21 09:38:28;;;;;;;7.93;7.30;;;;;;;27.86;57.79;100974.16;6037788;23;20026;-70
2023/06/21 09:40:55;;;;;;;8.45;7.75;;;;;;;28.09;54.59;100895.00;6011730;23;21171;-70
2023/06/21 09:43:22;;;;;;;9.48;8.23;;;;;;;28.18;54.89;100935.16;6037594;23;20503;-69
2023/06/21 09:45:59;;;;;;;8.63;7.93;;;;;;;27.74;54.45;100854.31;6013582;23;20038;-70
2023/06/21 09:48:26;;;;;;;8.60;7.93;;;;;;;28.33;53.15;100888.41;5978772;23;20053;-68
2023/06/21 09:50:55;;;;;;;8.88;7.25;;;;;;;28.61;52.99;100935.25;6044486;23;20029;-68
2023/06/21 09:53:25;;;;;;;8.30;7.57;;;;;;;28.12;55.66;100935.09;5982203;23;20046;-67
2023/06/21 09:55:52;;;;;;;8.90;7.93;;;;;;;27.73;55.83;100920.91;6038186;23;20432;-68
2023/06/21 09:58:18;;;;;;;8.40;7.60;;;;;;;27.43;57.97;100964.03;5986400;23;20509;-67
2023/06/21 10:00:44;;;;;;;8.23;7.55;;;;;;;27.40;57.78;100966.25;6045241;23;20081;-68
2023/06/21 10:03:11;;;;;;;12.23;7.97;;;;;;;27.40;57.21;100950.94;5985114;23;20565;-68
2023/06/21 10:05:55;;;;;;;8.70;7.90;;;;;;;27.74;55.98;100964.88;6046812;23;20023;-68
2023/06/21 10:08:23;;;;;;;8.60;7.78;;;;;;;27.84;56.16;100960.03;6001925;23;20026;-68
2023/06/21 10:10:50;;;;;;;8.57;7.88;;;;;;;28.41;54.33;100969.28;6043901;23;20049;-68
2023/06/21 10:13:17;;;;;;;8.45;7.75;;;;;;;28.10;54.40;100929.88;5991201;23;20015;-68
2023/06/21 10:15:46;;;;;;;8.73;8.00;;;;;;;27.59;56.10;100927.13;6038158;23;20026;-68
2023/06/21 10:18:12;;;;;;;9.13;8.32;;;;;;;27.07;57.35;100950.38;5998182;23;20659;-68
2023/06/21 10:20:41;;;;;;;8.82;8.02;;;;;;;27.48;57.27;100960.78;6027536;23;20583;-67
2023/06/21 10:23:10;;;;;;;7.60;7.10;;;;;;;28.01;54.18;100944.53;6005795;23;20019;-68
2023/06/21 10:25:39;;;;;;;8.05;7.45;;;;;;;28.71;52.49;100945.72;6030956;23;20627;-68
2023/06/21 10:28:07;;;;;;;9.25;8.40;;;;;;;28.17;53.33;100916.47;5980815;23;20022;-68
2023/06/21 10:30:37;;;;;;;8.20;7.50;;;;;;;28.25;54.52;100967.63;6021016;23;20057;-67
2023/06/21 10:33:04;;;;;;;8.88;8.18;;;;;;;27.93;55.74;100985.94;6007593;23;20359;-68
2023/06/21 10:35:34;;;;;;;8.10;7.40;;;;;;;27.52;56.24;100964.75;6044201;23;20091;-68
2023/06/21 10:38:07;;;;;;;12.02;8.00;;;;;;;28.30;54.48;100988.66;5982509;23;20681;-68
2023/06/21 10:40:35;;;;;;;8.73;8.02;;;;;;;28.56;53.69;100985.44;6036305;23;20030;-68
2023/06/21 10:43:03;;;;;;;8.75;7.95;;;;;;;28.40;54.06;100983.78;6008364;23;20078;-68
2023/06/21 10:45:31;;;;;;;8.70;8.00;;;;;;;28.10;55.65;101000.03;6012530;23;20630;-70
2023/06/21 10:47:57;;;;;;;9.35;8.48;;;;;;;28.06;55.74;101009.53;6008092;23;20031;-68
2023/06/21 10:50:24;;;;;;;8.43;7.72;;;;;;;28.47;54.52;101005.47;6035560;23;20049;-67
2023/06/21 10:52:55;;;;;;;8.57;7.88;;;;;;;28.84;52.63;100953.94;5992519;23;20022;-68
2023/06/21 10:55:22;;;;;;;8.88;8.18;;;;;;;29.58;51.65;100981.56;6040608;23;20024;-68
2023/06/21 10:57:54;;;;;;;8.48;7.88;;;;;;;29.73;50.13;100939.03;5966808;23;20109;-70
2023/06/21 11:00:26;;;;;;;8.15;7.43;;;;;;;29.89;50.62;100959.50;6036358;23;20093;-67
2023/06/21 11:02:54;;;;;;;8.40;7.63;;;;;;;29.59;48.50;100846.13;6011278;23;20047;-68
2023/06/21 11:05:25;;;;;;;10.20;7.78;;;;;;;29.70;48.36;100901.50;6038984;23;20046;-68
2023/06/21 11:08:05;;;;;;;8.45;7.75;;;;;;;29.63;49.19;100922.31;5990451;23;20031;-68
2023/06/21 11:10:46;;;;;;;8.57;7.90;;;;;;;29.58;49.11;100885.00;6035457;23;20058;-68
2023/06/21 11:13:14;;;;;;;7.82;7.22;;;;;;;29.56;49.21;100911.44;6008430;23;20023;-70
2023/06/21 11:15:44;;;;;;;7.65;7.10;;;;;;;29.30;48.98;100892.34;6038071;23;20054;-67
2023/06/21 11:18:19;;;;;;;7.75;7.25;;;;;;;29.55;48.83;100914.34;6015831;23;20058;-68
2023/06/21 11:20:50;;;;;;;8.10;7.40;;;;;;;29.85;48.75;100931.19;6008265;23;20022;-68
2023/06/21 11:23:22;;;;;;;8.10;7.50;;;;;;;29.91;48.55;100934.91;6011127;23;20639;-70
2023/06/21 11:26:02;;;;;;;7.90;7.22;;;;;;;28.75;50.94;100935.38;6030665;23;20095;-69
2023/06/21 11:28:32;;;;;;;7.82;7.25;;;;;;;28.40;51.02;100902.78;5978458;23;20075;-67